Time;durP1;ratioP1;P1;durP2;ratioP2;P2;SDS_P1;SDS_P2;PMS_P1;PMS_P2;Temp;Humidity;BMP_temperature;BMP_pressure;BME280_temperature;BME280_humidity;BME280_pressure;Samples;Min_cycle;Max_cycle;Signal;HPM_P1;HPM_P2
2021/06/18 00:00:20;;;;;;;6.07;5.40;;;15.50;82.80;;;;;;6118678;23;20006;-71
2021/06/18 00:03:26;;;;;;;6.57;5.90;;;15.50;82.70;;;;;;6119846;23;20018;-71
2021/06/18 00:06:32;;;;;;;6.55;4.85;;;15.50;82.60;;;;;;6121731;23;20264;-71
2021/06/18 00:09:38;;;;;;;4.50;3.78;;;15.50;82.50;;;;;;6121326;23;20444;-71
2021/06/18 00:12:45;;;;;;;4.75;4.35;;;15.50;82.30;;;;;;6120186;23;20007;-71
2021/06/18 00:15:51;;;;;;;4.00;3.13;;;15.50;82.20;;;;;;6121122;23;20002;-71
2021/06/18 00:18:57;;;;;;;7.35;3.13;;;15.40;82.00;;;;;;6121264;23;20014;-71
2021/06/18 00:22:03;;;;;;;4.13;2.45;;;15.40;82.40;;;;;;6120525;23;20021;-71
2021/06/18 00:25:09;;;;;;;3.83;3.30;;;15.40;81.70;;;;;;6122224;23;20418;-71
2021/06/18 00:27:56;;;;;;;3.33;2.15;;;15.40;81.60;;;;;;6123219;23;20006;-71
2021/06/18 00:31:02;;;;;;;2.90;1.90;;;15.40;81.60;;;;;;6122198;23;20089;-71
2021/06/18 00:33:46;;;;;;;5.18;2.05;;;15.40;81.50;;;;;;6121806;23;20030;-72
2021/06/18 00:36:52;;;;;;;4.82;1.95;;;15.30;81.40;;;;;;6123546;23;20145;-71
2021/06/18 00:39:58;;;;;;;3.55;2.47;;;15.30;81.40;;;;;;6123418;23;20414;-71
2021/06/18 00:43:04;;;;;;;3.78;2.60;;;15.30;81.30;;;;;;6119750;23;20033;-71
2021/06/18 00:46:08;;;;;;;2.35;1.73;;;15.30;81.10;;;;;;6123028;23;20005;-71
2021/06/18 00:49:14;;;;;;;2.83;2.17;;;15.30;81.10;;;;;;6121440;23;20072;-71
2021/06/18 00:52:20;;;;;;;2.92;1.67;;;15.30;81.10;;;;;;6121998;23;20080;-71
2021/06/18 00:55:26;;;;;;;5.57;3.15;;;15.30;81.10;;;;;;6121855;23;20013;-71
2021/06/18 00:58:32;;;;;;;8.23;2.90;;;15.30;81.10;;;;;;6123631;23;20077;-71
2021/06/18 01:01:38;;;;;;;6.22;2.92;;;15.20;81.00;;;;;;6123652;23;20002;-71
2021/06/18 01:04:44;;;;;;;4.47;2.85;;;15.20;81.00;;;;;;6121949;23;20017;-71
2021/06/18 01:07:53;;;;;;;4.80;2.47;;;15.20;81.00;;;;;;6122633;23;20048;-71
2021/06/18 01:10:35;;;;;;;6.45;1.92;;;15.20;81.00;;;;;;6122766;23;20545;-71
2021/06/18 01:13:37;;;;;;;3.63;2.65;;;15.20;81.00;;;;;;6121364;23;20002;-72
2021/06/18 01:17:13;;;;;;;4.05;2.10;;;15.20;81.10;;;;;;6119140;23;20069;-71
2021/06/18 01:20:25;;;;;;;7.95;2.17;;;15.20;81.20;;;;;;6122515;23;20037;-72
2021/06/18 01:23:36;;;;;;;8.43;2.33;;;15.20;81.10;;;;;;6078096;23;20025;-72
2021/06/18 01:26:41;;;;;;;8.10;2.00;;;15.20;81.20;;;;;;6121150;23;20029;-71
2021/06/18 01:29:47;;;;;;;5.50;2.05;;;15.20;81.40;;;;;;6121881;23;20020;-72
2021/06/18 01:32:43;;;;;;;6.63;2.67;;;15.20;81.40;;;;;;6122901;23;20009;-71
2021/06/18 01:36:01;;;;;;;7.57;2.55;;;15.20;81.50;;;;;;6122328;23;20006;-71
2021/06/18 01:39:07;;;;;;;7.90;2.08;;;15.20;81.60;;;;;;6121086;23;20052;-71
2021/06/18 01:42:13;;;;;;;5.65;1.88;;;15.20;81.70;;;;;;6122306;23;20073;-71
2021/06/18 01:45:19;;;;;;;5.75;2.15;;;15.10;81.70;;;;;;6122865;23;20002;-71
2021/06/18 01:48:25;;;;;;;8.15;2.60;;;15.10;81.70;;;;;;6119586;23;20002;-71
2021/06/18 01:51:32;;;;;;;8.68;2.78;;;15.10;81.60;;;;;;6121786;23;20016;-71
2021/06/18 01:54:38;;;;;;;2.65;2.22;;;15.10;81.40;;;;;;6122731;23;20018;-71
2021/06/18 01:57:44;;;;;;;13.25;3.25;;;15.10;81.20;;;;;;6121847;23;20036;-71
2021/06/18 02:00:50;;;;;;;7.43;3.33;;;15.10;81.10;;;;;;6120890;23;20006;-71
2021/06/18 02:03:59;;;;;;;4.72;2.40;;;15.10;80.90;;;;;;6121956;23;20077;-71
2021/06/18 02:07:06;;;;;;;3.80;3.40;;;15.00;80.90;;;;;;6122224;23;20044;-71
2021/06/18 02:10:12;;;;;;;5.15;2.28;;;15.10;80.80;;;;;;6120787;23;20041;-72
2021/06/18 02:13:18;;;;;;;7.75;3.72;;;15.10;80.70;;;;;;6121719;23;20014;-71
2021/06/18 02:16:24;;;;;;;6.45;2.20;;;15.00;80.60;;;;;;6122966;23;20385;-71
2021/06/18 02:19:30;;;;;;;10.05;3.45;;;15.00;80.50;;;;;;6122642;23;20012;-73
2021/06/18 02:22:36;;;;;;;6.05;2.90;;;15.00;80.60;;;;;;6121533;23;20474;-71
2021/06/18 02:25:08;;;;;;;13.48;3.10;;;15.00;80.70;;;;;;6121111;23;20013;-71
2021/06/18 02:27:37;;;;;;;7.00;3.78;;;15.00;81.10;;;;;;6121742;23;20006;-71
2021/06/18 02:30:43;;;;;;;5.93;3.63;;;15.00;81.20;;;;;;6120461;23;20006;-71
2021/06/18 02:33:49;;;;;;;6.45;3.25;;;15.00;81.40;;;;;;6121916;23;20009;-71
2021/06/18 02:36:16;;;;;;;11.63;3.53;;;15.00;81.50;;;;;;6122266;23;20021;-70
2021/06/18 02:39:23;;;;;;;10.30;4.47;;;15.00;81.60;;;;;;6118812;23;20148;-71
2021/06/18 02:41:49;;;;;;;20.15;12.35;;;15.00;81.70;;;;;;6121859;23;20017;-70
2021/06/18 02:44:34;;;;;;;23.33;15.73;;;15.00;81.70;;;;;;6120787;23;20625;-71
2021/06/18 02:47:34;;;;;;;18.83;13.43;;;15.00;81.80;;;;;;6121211;23;20012;-71
2021/06/18 02:50:17;;;;;;;17.00;10.55;;;15.00;81.80;;;;;;6120157;23;20057;-71
2021/06/18 02:53:25;;;;;;;11.25;7.20;;;15.00;81.90;;;;;;6118850;23;20346;-71
2021/06/18 02:56:03;;;;;;;10.52;5.90;;;14.90;82.00;;;;;;6120822;23;20490;-71
2021/06/18 02:58:55;;;;;;;7.82;4.85;;;15.00;82.20;;;;;;6121422;23;20006;-71
2021/06/18 03:01:30;;;;;;;7.22;3.20;;;14.90;82.10;;;;;;6119643;23;20009;-72
2021/06/18 03:04:00;;;;;;;7.90;3.97;;;14.90;82.10;;;;;;6120111;23;20517;-72
2021/06/18 03:07:06;;;;;;;9.10;3.08;;;14.90;82.10;;;;;;6121607;23;20032;-72
2021/06/18 03:10:02;;;;;;;9.88;3.53;;;14.90;82.10;;;;;;6117649;23;20022;-72
2021/06/18 03:13:08;;;;;;;7.65;3.20;;;14.90;82.00;;;;;;6119725;23;20058;-73
2021/06/18 03:15:57;;;;;;;6.72;2.13;;;14.90;82.00;;;;;;6121481;23;20338;-72
2021/06/18 03:18:31;;;;;;;6.30;4.15;;;14.90;82.00;;;;;;6120171;23;20016;-72
2021/06/18 03:21:01;;;;;;;6.70;2.67;;;14.90;82.00;;;;;;6120078;23;20385;-72
2021/06/18 03:24:07;;;;;;;4.07;3.60;;;14.90;82.00;;;;;;6120542;23;20052;-72
2021/06/18 03:26:34;;;;;;;5.85;2.25;;;14.90;81.90;;;;;;6120644;23;20010;-71
2021/06/18 03:29:29;;;;;;;7.68;2.30;;;14.90;81.90;;;;;;6121507;23;20009;-72
2021/06/18 03:32:16;;;;;;;5.80;1.95;;;14.90;81.80;;;;;;6119347;23;20006;-72
2021/06/18 03:34:43;;;;;;;4.68;2.58;;;14.80;81.70;;;;;;6120594;23;20347;-73
2021/06/18 03:37:10;;;;;;;5.35;2.67;;;14.80;81.80;;;;;;6121887;23;20426;-72
2021/06/18 03:39:38;;;;;;;6.18;2.17;;;14.80;81.70;;;;;;6119349;23;20342;-72
2021/06/18 03:42:05;;;;;;;5.82;3.85;;;14.80;81.60;;;;;;6119634;23;20022;-72
2021/06/18 03:44:32;;;;;;;6.22;3.28;;;14.80;81.60;;;;;;6117002;23;20009;-72
2021/06/18 03:47:00;;;;;;;5.10;3.08;;;14.80;81.60;;;;;;6118526;23;20085;-71
2021/06/18 03:49:27;;;;;;;6.85;3.15;;;14.80;81.50;;;;;;6119731;23;20006;-70
2021/06/18 03:51:56;;;;;;;5.90;3.13;;;14.80;81.50;;;;;;6119170;23;20422;-70
2021/06/18 03:54:23;;;;;;;5.20;3.05;;;14.80;81.40;;;;;;6120281;23;20473;-75
2021/06/18 03:57:10;;;;;;;8.70;2.90;;;14.80;81.40;;;;;;6120526;23;20338;-70
2021/06/18 03:59:41;;;;;;;8.65;5.80;;;14.80;81.30;;;;;;6123432;23;20013;-71
2021/06/18 04:02:10;;;;;;;10.13;8.10;;;14.70;81.30;;;;;;6122198;23;20020;-75
2021/06/18 04:04:39;;;;;;;15.43;11.00;;;14.80;81.40;;;;;;6123934;23;20006;-72
2021/06/18 04:07:07;;;;;;;15.63;9.68;;;14.80;81.40;;;;;;6123448;23;20107;-72
2021/06/18 04:09:36;;;;;;;14.25;8.05;;;14.70;81.30;;;;;;6120077;23;20052;-75
2021/06/18 04:12:42;;;;;;;12.25;6.63;;;14.80;81.40;;;;;;6123171;23;20073;-73
2021/06/18 04:15:48;;;;;;;7.35;5.28;;;14.70;81.20;;;;;;6122646;23;20006;-74
2021/06/18 04:18:24;;;;;;;8.00;4.15;;;14.70;81.10;;;;;;6121936;23;20055;-72
2021/06/18 04:20:51;;;;;;;8.40;4.85;;;14.70;81.10;;;;;;6123544;23;20009;-70
2021/06/18 04:23:28;;;;;;;17.85;12.50;;;14.70;81.20;;;;;;6121891;23;20492;-72
2021/06/18 04:25:59;;;;;;;18.63;13.10;;;14.70;81.30;;;;;;6123268;23;20094;-73
2021/06/18 04:28:27;;;;;;;17.63;11.48;;;14.70;81.50;;;;;;6122726;23;20432;-77
2021/06/18 04:30:54;;;;;;;14.27;10.05;;;14.70;81.80;;;;;;6122287;23;20002;-71
2021/06/18 04:33:22;;;;;;;12.80;6.97;;;14.70;82.20;;;;;;6123607;23;20009;-71
2021/06/18 04:35:49;;;;;;;9.15;7.13;;;14.70;82.40;;;;;;6121439;23;20303;-72
2021/06/18 04:38:16;;;;;;;10.80;7.35;;;14.70;82.70;;;;;;6121459;23;20094;-71
2021/06/18 04:40:42;;;;;;;10.35;6.75;;;14.70;82.90;;;;;;6121905;23;19998;-71
2021/06/18 04:43:09;;;;;;;11.05;6.22;;;14.70;83.10;;;;;;6121999;23;20097;-71
2021/06/18 04:46:04;;;;;;;6.88;5.28;;;14.70;83.20;;;;;;6122631;23;20032;-71
2021/06/18 04:49:10;;;;;;;10.27;6.65;;;14.70;83.40;;;;;;6120701;23;20006;-71
2021/06/18 04:51:36;;;;;;;11.77;7.68;;;14.70;83.60;;;;;;6123673;23;20327;-71
2021/06/18 04:54:11;;;;;;;12.75;6.63;;;14.70;83.80;;;;;;6122610;23;19998;-71
2021/06/18 04:56:42;;;;;;;15.68;8.35;;;14.70;84.70;;;;;;6096977;23;20017;-71
2021/06/18 04:59:08;;;;;;;18.58;8.20;;;14.70;84.20;;;;;;6122951;23;20118;-70
2021/06/18 05:02:14;;;;;;;18.88;8.35;;;14.80;84.40;;;;;;6121747;23;20064;-71
2021/06/18 05:04:51;;;;;;;14.70;8.60;;;14.70;84.50;;;;;;6123165;23;20002;-71
2021/06/18 05:07:18;;;;;;;12.65;9.10;;;14.80;84.80;;;;;;6120469;23;20446;-71
2021/06/18 05:10:24;;;;;;;16.38;9.15;;;14.80;84.90;;;;;;6122170;23;20017;-71
2021/06/18 05:13:30;;;;;;;18.60;9.30;;;14.80;85.10;;;;;;6123102;23;20002;-71
2021/06/18 05:15:57;;;;;;;12.63;8.90;;;14.80;85.20;;;;;;6122333;23;20057;-71
2021/06/18 05:18:23;;;;;;;15.55;8.23;;;14.70;85.20;;;;;;6120037;23;20049;-71
2021/06/18 05:21:29;;;;;;;16.95;8.07;;;14.80;85.40;;;;;;6121942;23;20009;-73
2021/06/18 05:24:35;;;;;;;14.20;7.75;;;14.80;85.50;;;;;;6120375;23;20021;-71
2021/06/18 05:27:02;;;;;;;15.27;7.32;;;14.80;85.70;;;;;;6120645;23;20354;-71
2021/06/18 05:29:50;;;;;;;16.27;9.07;;;14.80;85.70;;;;;;6121748;23;20010;-71
2021/06/18 05:32:56;;;;;;;18.85;8.32;;;14.80;85.70;;;;;;6094522;23;20580;-71
2021/06/18 05:35:42;;;;;;;14.77;9.00;;;14.80;85.80;;;;;;6121190;23;20002;-72
2021/06/18 05:38:12;;;;;;;13.40;9.27;;;14.80;85.90;;;;;;6121171;23;20009;-71
2021/06/18 05:40:42;;;;;;;14.52;9.25;;;14.80;85.90;;;;;;6118274;23;20009;-71
2021/06/18 05:43:10;;;;;;;18.65;10.27;;;14.80;86.00;;;;;;6121213;23;20009;-71
2021/06/18 05:45:38;;;;;;;24.40;11.35;;;14.80;86.10;;;;;;6121555;23;20060;-70
2021/06/18 05:48:05;;;;;;;18.95;13.20;;;14.80;86.10;;;;;;6122485;23;20017;-71
2021/06/18 05:50:32;;;;;;;17.85;12.63;;;14.80;85.70;;;;;;6122007;23;20006;-71
2021/06/18 05:52:59;;;;;;;19.17;12.63;;;14.80;86.20;;;;;;6121947;23;20496;-73
2021/06/18 05:55:25;;;;;;;19.80;12.85;;;14.80;86.30;;;;;;6122893;23;20057;-70
2021/06/18 05:57:55;;;;;;;25.98;14.55;;;14.80;86.30;;;;;;6121040;23;20028;-71
2021/06/18 06:00:22;;;;;;;21.67;13.90;;;14.80;86.40;;;;;;6122781;23;20002;-71
2021/06/18 06:03:28;;;;;;;20.85;14.32;;;14.80;86.40;;;;;;6121131;23;20060;-71
2021/06/18 06:06:34;;;;;;;21.05;13.43;;;14.80;86.50;;;;;;6122300;23;20013;-71
2021/06/18 06:09:40;;;;;;;26.52;13.77;;;14.80;86.50;;;;;;6122582;23;20037;-73
2021/06/18 06:12:07;;;;;;;26.75;14.73;;;14.80;86.50;;;;;;6121527;23;20058;-73
2021/06/18 06:14:33;;;;;;;26.88;15.40;;;14.80;86.50;;;;;;6121846;23;20326;-73
2021/06/18 06:17:00;;;;;;;26.95;14.50;;;14.70;86.50;;;;;;6122283;23;20149;-71
2021/06/18 06:19:26;;;;;;;23.85;14.20;;;14.80;86.50;;;;;;6120950;23;20009;-71
2021/06/18 06:21:53;;;;;;;23.83;13.95;;;14.80;86.60;;;;;;6121946;23;20052;-73
2021/06/18 06:24:59;;;;;;;23.85;13.25;;;14.70;87.30;;;;;;6120593;23;20010;-71
2021/06/18 06:27:26;;;;;;;23.50;13.13;;;14.70;86.70;;;;;;6122356;23;20057;-73
2021/06/18 06:29:53;;;;;;;26.23;13.63;;;14.80;86.90;;;;;;6122310;23;19998;-71
2021/06/18 06:32:59;;;;;;;22.88;12.27;;;14.80;86.90;;;;;;6120778;23;20010;-71
2021/06/18 06:36:05;;;;;;;19.73;11.18;;;14.70;86.90;;;;;;6122205;23;20431;-72
2021/06/18 06:39:11;;;;;;;23.42;12.68;;;14.80;87.00;;;;;;6122059;23;20065;-70
2021/06/18 06:41:38;;;;;;;19.60;12.68;;;14.80;87.10;;;;;;6121034;23;20628;-70
2021/06/18 06:44:44;;;;;;;23.85;11.82;;;14.80;87.10;;;;;;6122389;23;20006;-70
2021/06/18 06:47:10;;;;;;;22.58;12.63;;;14.80;87.20;;;;;;6120279;23;20066;-71
2021/06/18 06:49:37;;;;;;;27.27;12.82;;;14.80;87.20;;;;;;6121894;23;20561;-71
2021/06/18 06:52:43;;;;;;;18.35;11.75;;;14.80;87.30;;;;;;6121953;23;20026;-73
2021/06/18 06:55:49;;;;;;;19.45;12.23;;;14.80;87.40;;;;;;6121102;23;20009;-72
2021/06/18 06:58:16;;;;;;;26.45;13.48;;;14.80;87.50;;;;;;6120935;23;20465;-70
2021/06/18 07:00:43;;;;;;;26.55;10.68;;;14.80;87.60;;;;;;6121956;23;20068;-71
2021/06/18 07:03:09;;;;;;;19.65;10.32;;;14.80;87.70;;;;;;6120487;23;20033;-71
2021/06/18 07:05:36;;;;;;;17.08;12.07;;;14.80;87.80;;;;;;6121810;23;20013;-71
2021/06/18 07:08:55;;;;;;;22.33;12.10;;;14.80;87.90;;;;;;6120701;23;20331;-71
2021/06/18 07:12:01;;;;;;;16.40;8.95;;;14.80;88.10;;;;;;6120680;23;20012;-72
2021/06/18 07:14:27;;;;;;;16.30;10.48;;;14.80;88.30;;;;;;6121539;23;20017;-71
2021/06/18 07:16:54;;;;;;;15.70;9.50;;;14.80;88.50;;;;;;6121066;23;20442;-70
2021/06/18 07:20:02;;;;;;;20.33;8.95;;;14.80;88.60;;;;;;6121782;23;20438;-72
2021/06/18 07:22:46;;;;;;;18.60;8.50;;;14.90;88.80;;;;;;6121691;23;20014;-70
2021/06/18 07:25:13;;;;;;;12.50;8.40;;;14.90;89.00;;;;;;6119013;23;20110;-71
2021/06/18 07:27:39;;;;;;;22.90;9.82;;;14.90;89.20;;;;;;6121396;23;20034;-70
2021/06/18 07:30:06;;;;;;;17.13;8.38;;;14.90;89.30;;;;;;6119393;23;20010;-70
2021/06/18 07:33:12;;;;;;;15.55;8.90;;;14.90;89.50;;;;;;6123036;23;20446;-72
2021/06/18 07:36:18;;;;;;;17.80;9.18;;;15.00;89.70;;;;;;6123802;23;20006;-70
2021/06/18 07:38:45;;;;;;;13.57;7.85;;;15.00;89.80;;;;;;6123549;23;20002;-70
2021/06/18 07:41:11;;;;;;;15.00;8.38;;;15.00;89.90;;;;;;6123139;23;20010;-70
2021/06/18 07:44:17;;;;;;;12.05;7.53;;;15.00;90.00;;;;;;6123735;23;20040;-70
2021/06/18 07:47:24;;;;;;;10.93;6.43;;;15.00;90.00;;;;;;6122450;23;20032;-70
2021/06/18 07:49:50;;;;;;;20.90;9.00;;;15.10;90.00;;;;;;6123139;23;20002;-70
2021/06/18 07:52:17;;;;;;;13.57;7.57;;;15.10;90.10;;;;;;6123689;23;20005;-72
2021/06/18 07:54:43;;;;;;;16.70;8.02;;;15.10;90.10;;;;;;6122367;23;20009;-70
2021/06/18 07:57:11;;;;;;;14.95;6.53;;;15.10;90.20;;;;;;6123628;23;20009;-70
2021/06/18 07:59:38;;;;;;;13.35;6.47;;;15.20;90.20;;;;;;6122342;23;20013;-71
2021/06/18 08:02:04;;;;;;;9.43;5.93;;;15.20;90.20;;;;;;6123575;23;20010;-70
2021/06/18 08:04:31;;;;;;;14.73;6.25;;;15.20;90.30;;;;;;6122883;23;20064;-71
2021/06/18 08:06:57;;;;;;;11.13;5.05;;;15.20;90.30;;;;;;6122946;23;20425;-70
2021/06/18 08:09:23;;;;;;;12.18;4.93;;;15.30;90.40;;;;;;6123605;23;20109;-71
2021/06/18 08:11:51;;;;;;;10.38;4.85;;;15.20;90.40;;;;;;6122781;23;20307;-71
2021/06/18 08:14:18;;;;;;;16.13;5.40;;;15.30;90.40;;;;;;6123412;23;20367;-71
2021/06/18 08:16:45;;;;;;;12.30;5.40;;;15.30;90.40;;;;;;6122149;23;20013;-71
2021/06/18 08:19:11;;;;;;;10.98;4.43;;;15.40;90.40;;;;;;6123534;23;19998;-71
2021/06/18 08:21:38;;;;;;;8.57;3.97;;;15.30;90.40;;;;;;6122007;23;20013;-70
2021/06/18 08:24:05;;;;;;;8.57;4.43;;;15.40;90.50;;;;;;6123090;23;20442;-70
2021/06/18 08:26:31;;;;;;;7.85;5.03;;;15.40;90.50;;;;;;6123184;23;20081;-70
2021/06/18 08:28:58;;;;;;;13.52;4.18;;;15.40;90.50;;;;;;6121899;23;20009;-70
2021/06/18 08:31:24;;;;;;;7.15;3.45;;;15.50;90.50;;;;;;6123486;23;20312;-71
2021/06/18 08:33:51;;;;;;;8.50;3.10;;;15.50;90.50;;;;;;6121873;23;20004;-70
2021/06/18 08:36:17;;;;;;;11.20;4.22;;;15.50;90.40;;;;;;6122945;23;20609;-71
2021/06/18 08:38:44;;;;;;;7.97;2.95;;;15.50;90.40;;;;;;6122323;23;19998;-71
2021/06/18 08:41:50;;;;;;;7.90;3.55;;;15.60;90.40;;;;;;6123163;23;20006;-71
2021/06/18 08:44:46;;;;;;;5.60;3.20;;;15.60;90.30;;;;;;6123103;23;20014;-70
2021/06/18 08:47:13;;;;;;;9.63;3.22;;;15.60;90.20;;;;;;6119960;23;20010;-70
2021/06/18 08:50:08;;;;;;;6.28;2.25;;;15.70;90.20;;;;;;6123025;23;19998;-71
2021/06/18 08:53:17;;;;;;;7.45;2.38;;;15.70;90.10;;;;;;6121018;23;20002;-71
2021/06/18 08:55:44;;;;;;;7.75;3.00;;;15.80;90.10;;;;;;6119433;23;20034;-71
2021/06/18 08:58:10;;;;;;;12.55;3.00;;;15.80;90.00;;;;;;6121184;23;20006;-71
2021/06/18 09:01:16;;;;;;;5.60;2.40;;;15.80;89.80;;;;;;6121541;23;20029;-71
2021/06/18 09:04:05;;;;;;;5.13;2.45;;;15.90;89.70;;;;;;6121751;23;20010;-73
2021/06/18 09:07:20;;;;;;;7.15;2.38;;;15.90;89.40;;;;;;6122575;23;20495;-71
2021/06/18 09:10:41;;;;;;;3.90;1.48;;;16.00;89.60;;;;;;6122393;23;20037;-71
2021/06/18 09:13:50;;;;;;;8.57;2.83;;;16.00;88.40;;;;;;6121285;23;20260;-73
2021/06/18 09:16:56;;;;;;;4.72;2.05;;;16.10;87.90;;;;;;6122247;23;20312;-71
2021/06/18 09:19:26;;;;;;;8.35;1.95;;;16.10;87.30;;;;;;6122789;23;20006;-71
2021/06/18 09:22:41;;;;;;;7.65;2.05;;;16.10;86.70;;;;;;6121509;23;20037;-71
2021/06/18 09:25:13;;;;;;;13.52;3.40;;;16.10;86.30;;;;;;6119580;23;20434;-71
2021/06/18 09:27:43;;;;;;;4.32;1.83;;;16.20;86.10;;;;;;6122562;23;20012;-71
2021/06/18 09:30:32;;;;;;;7.05;1.77;;;16.20;85.90;;;;;;6121451;23;19998;-71
2021/06/18 09:33:44;;;;;;;6.55;2.88;;;16.30;86.40;;;;;;6120813;23;20608;-71
2021/06/18 09:36:11;;;;;;;9.88;2.00;;;16.40;85.30;;;;;;6122378;23;20489;-71
2021/06/18 09:39:26;;;;;;;5.57;1.83;;;16.40;85.20;;;;;;6121585;23;20650;-71
2021/06/18 09:42:32;;;;;;;5.82;2.05;;;16.40;84.70;;;;;;6122917;23;20434;-71
2021/06/18 09:45:10;;;;;;;3.28;1.98;;;16.50;84.30;;;;;;6122542;23;20072;-74
2021/06/18 09:47:38;;;;;;;7.82;1.60;;;16.60;83.70;;;;;;6120392;23;20338;-71
2021/06/18 09:50:31;;;;;;;5.50;2.20;;;16.60;83.40;;;;;;6122582;23;19998;-71
2021/06/18 09:53:23;;;;;;;7.85;3.03;;;16.70;83.10;;;;;;6122268;23;20476;-71
2021/06/18 09:56:29;;;;;;;5.78;1.00;;;16.70;82.60;;;;;;6121435;23;20002;-71
2021/06/18 09:58:56;;;;;;;10.90;1.67;;;16.80;81.90;;;;;;6122532;23;20010;-71
2021/06/18 10:01:25;;;;;;;4.25;1.35;;;16.80;81.20;;;;;;6121528;23;20053;-71
2021/06/18 10:04:10;;;;;;;5.82;1.95;;;16.90;81.20;;;;;;6121989;23;20014;-71
2021/06/18 10:06:39;;;;;;;6.70;1.27;;;16.90;81.00;;;;;;6122330;23;20006;-71
2021/06/18 10:09:42;;;;;;;5.53;0.95;;;17.00;80.50;;;;;;6120994;23;20018;-71
2021/06/18 10:12:09;;;;;;;8.35;1.63;;;17.00;80.10;;;;;;6121209;23;20081;-71
2021/06/18 10:15:16;;;;;;;7.47;1.95;;;17.00;79.00;;;;;;6122223;23;20076;-71
2021/06/18 10:17:44;;;;;;;4.00;1.13;;;17.10;79.70;;;;;;6120985;23;20006;-71
2021/06/18 10:20:19;;;;;;;3.35;1.00;;;17.20;78.90;;;;;;6120856;23;20009;-71
2021/06/18 10:23:10;;;;;;;4.70;1.40;;;17.20;78.50;;;;;;6120587;23;20021;-72
2021/06/18 10:25:59;;;;;;;8.45;2.08;;;17.20;78.50;;;;;;6120131;23;20006;-71
2021/06/18 10:29:17;;;;;;;4.53;1.38;;;17.30;78.20;;;;;;6122124;23;20020;-72
2021/06/18 10:32:22;;;;;;;9.98;1.77;;;17.40;78.30;;;;;;6121837;23;20085;-72
2021/06/18 10:35:28;;;;;;;5.78;1.50;;;17.40;77.80;;;;;;6120892;23;20005;-71
2021/06/18 10:38:34;;;;;;;12.07;1.70;;;17.50;77.40;;;;;;6120127;23;20013;-71
2021/06/18 10:41:16;;;;;;;9.63;1.80;;;17.60;77.30;;;;;;6122210;23;20008;-71
2021/06/18 10:44:02;;;;;;;6.30;1.75;;;17.60;76.50;;;;;;6119224;23;20014;-71
2021/06/18 10:47:14;;;;;;;4.07;1.33;;;17.70;76.20;;;;;;6121924;23;20002;-72
2021/06/18 10:50:20;;;;;;;3.40;0.85;;;17.70;75.50;;;;;;6122281;23;20002;-72
2021/06/18 10:53:38;;;;;;;10.57;2.28;;;17.70;74.60;;;;;;6120452;23;20042;-72
2021/06/18 10:56:05;;;;;;;7.53;1.70;;;17.80;74.10;;;;;;6121009;23;20005;-72
2021/06/18 10:59:08;;;;;;;11.45;2.55;;;17.80;73.90;;;;;;6121452;23;20134;-72
2021/06/18 11:01:35;;;;;;;5.63;2.38;;;17.80;73.90;;;;;;6120588;23;20006;-72
2021/06/18 11:04:56;;;;;;;6.35;1.75;;;17.90;74.00;;;;;;6119661;23;20006;-72
2021/06/18 11:08:11;;;;;;;6.40;1.20;;;17.90;73.70;;;;;;6121676;23;20021;-72
2021/06/18 11:10:38;;;;;;;6.82;1.98;;;18.00;73.80;;;;;;6120792;23;20053;-73
2021/06/18 11:13:13;;;;;;;4.35;1.45;;;18.00;73.60;;;;;;6121487;23;20053;-72
2021/06/18 11:16:19;;;;;;;4.95;1.40;;;18.10;73.50;;;;;;6121745;23;20006;-72
2021/06/18 11:18:46;;;;;;;6.28;1.30;;;18.10;73.30;;;;;;6118629;23;20002;-72
2021/06/18 11:21:52;;;;;;;2.95;1.45;;;18.20;72.90;;;;;;6121749;23;20002;-72
2021/06/18 11:24:42;;;;;;;4.88;1.75;;;18.20;72.70;;;;;;6121535;23;20443;-72
2021/06/18 11:28:01;;;;;;;4.95;2.22;;;18.30;72.80;;;;;;6120600;23;20013;-72
2021/06/18 11:30:29;;;;;;;5.70;1.88;;;18.30;72.90;;;;;;6121256;23;20077;-72
2021/06/18 11:33:35;;;;;;;3.75;1.27;;;18.40;72.90;;;;;;6121419;23;19998;-72
2021/06/18 11:36:07;;;;;;;2.67;1.65;;;18.40;72.90;;;;;;6120363;23;20314;-72
2021/06/18 11:38:34;;;;;;;6.43;1.55;;;18.50;72.80;;;;;;6120597;23;20065;-72
2021/06/18 11:41:05;;;;;;;12.32;2.90;;;18.50;72.60;;;;;;6120975;23;19998;-72
2021/06/18 11:43:54;;;;;;;8.93;2.40;;;18.60;72.30;;;;;;6121235;23;20016;-72
2021/06/18 11:46:22;;;;;;;5.05;1.45;;;18.60;71.90;;;;;;6120805;23;20678;-72
2021/06/18 11:48:49;;;;;;;6.60;1.70;;;18.60;71.00;;;;;;6119184;23;20002;-72
2021/06/18 11:51:40;;;;;;;9.82;1.98;;;18.60;71.20;;;;;;6119881;23;20006;-72
2021/06/18 11:54:29;;;;;;;7.65;2.65;;;18.70;71.30;;;;;;6115466;23;20546;-72
2021/06/18 11:57:22;;;;;;;5.40;1.15;;;18.70;71.10;;;;;;6120539;23;20008;-72
2021/06/18 11:59:58;;;;;;;5.85;2.13;;;18.70;71.20;;;;;;6121498;23;20430;-72
2021/06/18 12:02:30;;;;;;;9.13;1.77;;;18.80;71.10;;;;;;6118680;23;20046;-72
2021/06/18 12:05:17;;;;;;;5.70;1.63;;;18.80;71.00;;;;;;6121331;23;20002;-72
2021/06/18 12:08:32;;;;;;;9.02;1.45;;;18.90;71.10;;;;;;6121882;23;20080;-72
2021/06/18 12:11:38;;;;;;;6.38;1.95;;;18.90;70.50;;;;;;6120414;23;20018;-72
2021/06/18 12:14:47;;;;;;;5.88;1.48;;;19.00;70.50;;;;;;6120692;23;20425;-72
2021/06/18 12:17:17;;;;;;;6.68;1.60;;;19.00;70.40;;;;;;6121627;23;20002;-72
2021/06/18 12:20:23;;;;;;;7.30;1.95;;;19.00;70.50;;;;;;6122603;23;20002;-72
2021/06/18 12:22:49;;;;;;;6.72;2.15;;;19.10;70.40;;;;;;6122258;23;20014;-72
2021/06/18 12:25:55;;;;;;;10.23;2.58;;;19.10;70.20;;;;;;6123026;23;20002;-72
2021/06/18 12:28:59;;;;;;;8.45;2.40;;;19.10;70.30;;;;;;6122489;23;20005;-72
2021/06/18 12:31:26;;;;;;;4.80;1.90;;;19.20;70.30;;;;;;6121896;23;20021;-72
2021/06/18 12:34:32;;;;;;;4.47;2.00;;;19.20;70.10;;;;;;6123260;23;20005;-72
2021/06/18 12:37:06;;;;;;;9.23;2.33;;;19.20;70.10;;;;;;6122379;23;20009;-72
2021/06/18 12:40:04;;;;;;;11.18;2.53;;;19.30;69.90;;;;;;6123152;23;20002;-72
2021/06/18 12:43:11;;;;;;;5.43;2.00;;;19.30;69.80;;;;;;6123039;23;20042;-72
2021/06/18 12:46:06;;;;;;;;;;;19.30;69.70;;;;;;6122704;23;20639;-72
2021/06/18 12:49:12;;;;;;;10.52;2.92;;;19.30;69.70;;;;;;6122262;23;19908;-73
2021/06/18 12:52:30;;;;;;;7.10;2.67;;;19.30;69.60;;;;;;6123255;23;20002;-72
2021/06/18 12:55:04;;;;;;;5.90;1.50;;;19.30;69.40;;;;;;6122420;23;20006;-73
2021/06/18 12:57:31;;;;;;;6.30;2.17;;;19.40;69.40;;;;;;6122295;23;20006;-72
2021/06/18 13:00:41;;;;;;;15.00;4.18;;;19.40;69.30;;;;;;6122946;23;20006;-72
2021/06/18 13:03:08;;;;;;;15.45;2.17;;;19.40;69.20;;;;;;6122153;23;20049;-73
2021/06/18 13:05:35;;;;;;;4.25;1.55;;;19.40;69.20;;;;;;6122517;23;20334;-72
2021/06/18 13:08:14;;;;;;;5.93;2.20;;;19.40;69.20;;;;;;6122432;23;20012;-72
2021/06/18 13:11:09;;;;;;;9.10;2.55;;;19.40;69.20;;;;;;6121836;23;20014;-72
2021/06/18 13:13:35;;;;;;;5.53;1.88;;;19.50;69.20;;;;;;6121499;23;20006;-72
2021/06/18 13:16:47;;;;;;;14.88;2.40;;;19.50;68.80;;;;;;6121691;23;19998;-72
2021/06/18 13:19:15;;;;;;;6.63;2.35;;;19.40;68.80;;;;;;6119697;23;20014;-72
2021/06/18 13:21:53;;;;;;;9.10;2.03;;;19.40;68.70;;;;;;6122747;23;19998;-72
2021/06/18 13:24:55;;;;;;;7.93;2.08;;;19.40;68.70;;;;;;6121645;23;20002;-73
2021/06/18 13:28:04;;;;;;;9.18;1.90;;;19.50;68.70;;;;;;6121130;23;20010;-72
2021/06/18 13:30:31;;;;;;;7.70;2.03;;;19.50;68.70;;;;;;6123174;23;20006;-72
2021/06/18 13:33:02;;;;;;;5.55;2.10;;;19.50;68.70;;;;;;6121875;23;20061;-73
2021/06/18 13:35:40;;;;;;;7.82;2.08;;;19.50;68.70;;;;;;6122653;23;20010;-72
2021/06/18 13:38:08;;;;;;;8.13;2.72;;;19.50;68.80;;;;;;6122171;23;20009;-72
2021/06/18 13:40:52;;;;;;;5.45;2.15;;;19.40;68.80;;;;;;6121681;23;20010;-72
2021/06/18 13:43:18;;;;;;;8.73;2.35;;;19.40;68.80;;;;;;6122436;23;20022;-73
2021/06/18 13:46:05;;;;;;;13.55;3.03;;;19.40;69.00;;;;;;6121370;23;20025;-72
2021/06/18 13:49:11;;;;;;;6.28;2.10;;;19.40;69.10;;;;;;6096415;23;20452;-73
2021/06/18 13:51:42;;;;;;;8.65;2.72;;;19.40;69.10;;;;;;6123180;23;20002;-73
2021/06/18 13:54:10;;;;;;;9.35;3.10;;;19.40;69.00;;;;;;6121307;23;20434;-72
2021/06/18 13:56:39;;;;;;;13.43;3.17;;;19.30;69.00;;;;;;6122677;23;20509;-72
2021/06/18 13:59:07;;;;;;;8.55;1.88;;;19.30;69.10;;;;;;6121451;23;20004;-73
2021/06/18 14:02:04;;;;;;;6.32;1.58;;;19.30;69.20;;;;;;6122205;23;20565;-73
2021/06/18 14:04:31;;;;;;;8.05;2.65;;;19.20;69.00;;;;;;6120920;23;20097;-72
2021/06/18 14:07:37;;;;;;;9.52;3.13;;;19.20;68.90;;;;;;6120943;23;20014;-72
2021/06/18 14:10:10;;;;;;;11.52;3.13;;;19.20;69.10;;;;;;6120326;23;20030;-76
2021/06/18 14:13:16;;;;;;;6.43;2.08;;;19.10;69.30;;;;;;6117786;23;20495;-72
2021/06/18 14:15:49;;;;;;;14.23;2.80;;;19.10;69.60;;;;;;6093498;23;20583;-73
2021/06/18 14:18:55;;;;;;;7.57;1.80;;;19.10;69.90;;;;;;6119609;23;20013;-72